createdAt,value
2023-02-23T00:01:38.576Z,31.92
2023-02-23T00:04:05.337Z,32.38
2023-02-23T00:06:33.938Z,31.95
2023-02-23T00:09:01.307Z,35.20
2023-02-23T00:11:28.703Z,32.08
2023-02-23T00:13:56.900Z,30.95
2023-02-23T00:16:25.484Z,30.90
2023-02-23T00:18:55.271Z,31.17
2023-02-23T00:21:32.344Z,32.55
2023-02-23T00:24:01.794Z,30.10
2023-02-23T00:26:33.861Z,31.25
2023-02-23T00:29:06.180Z,31.98
2023-02-23T00:31:32.880Z,32.60
2023-02-23T00:34:02.544Z,31.92
2023-02-23T00:36:32.011Z,30.23
2023-02-23T00:39:00.825Z,31.35
2023-02-23T00:41:30.636Z,30.63
2023-02-23T00:44:00.959Z,31.45
2023-02-23T00:46:30.249Z,31.75
2023-02-23T00:48:59.094Z,32.05
2023-02-23T00:51:27.806Z,32.05
2023-02-23T00:53:55.250Z,31.35
2023-02-23T00:56:22.215Z,35.10
2023-02-23T00:58:49.084Z,34.20
2023-02-23T01:01:18.052Z,33.22
2023-02-23T01:03:45.453Z,34.95
2023-02-23T01:06:14.853Z,34.72
2023-02-23T01:08:44.116Z,35.50
2023-02-23T01:11:16.000Z,37.15
2023-02-23T01:13:45.051Z,34.80
2023-02-23T01:16:15.436Z,35.30
2023-02-23T01:18:44.609Z,36.75
2023-02-23T01:21:19.358Z,38.03
2023-02-23T01:23:46.074Z,38.00
2023-02-23T01:26:21.194Z,37.05
2023-02-23T01:28:56.445Z,37.53
2023-02-23T01:31:24.984Z,37.60
2023-02-23T01:33:56.296Z,37.65
2023-02-23T01:36:23.121Z,37.65
2023-02-23T01:38:49.842Z,39.50
2023-02-23T01:41:17.303Z,39.53
2023-02-23T01:44:08.384Z,37.03
2023-02-23T01:46:39.158Z,38.25
2023-02-23T01:49:10.749Z,38.30
2023-02-23T01:51:43.010Z,39.53
2023-02-23T01:54:15.961Z,37.58
2023-02-23T01:56:47.593Z,37.60
2023-02-23T01:59:15.894Z,37.10
2023-02-23T02:01:43.782Z,38.13
2023-02-23T02:04:16.481Z,38.50
2023-02-23T02:06:45.824Z,37.95
2023-02-23T02:09:19.620Z,37.88
2023-02-23T02:11:54.113Z,36.33
2023-02-23T02:14:29.260Z,37.92
2023-02-23T02:17:27.566Z,38.70
2023-02-23T02:20:06.175Z,37.38
2023-02-23T02:22:42.500Z,37.60
2023-02-23T02:25:14.978Z,38.78
2023-02-23T02:27:50.476Z,37.00
2023-02-23T02:30:40.785Z,38.65
2023-02-23T02:33:19.172Z,38.53
2023-02-23T02:36:04.237Z,37.00
2023-02-23T02:41:28.488Z,36.15
2023-02-23T02:44:09.115Z,36.42
2023-02-23T02:46:40.460Z,36.75
2023-02-23T02:49:17.776Z,37.60
2023-02-23T02:52:12.139Z,35.80
2023-02-23T02:54:43.915Z,35.15
2023-02-23T02:57:12.993Z,35.83
2023-02-23T03:00:07.158Z,37.30
2023-02-23T03:02:56.298Z,37.45
2023-02-23T03:05:47.660Z,36.38
2023-02-23T03:09:07.192Z,36.13
2023-02-23T03:11:59.897Z,36.17
2023-02-23T03:15:11.318Z,35.63
2023-02-23T03:18:12.790Z,35.15
2023-02-23T03:21:05.412Z,35.20
2023-02-23T03:24:17.189Z,36.10
2023-02-23T03:27:31.417Z,35.17
2023-02-23T03:30:40.075Z,37.88
2023-02-23T03:33:36.944Z,36.67
2023-02-23T03:36:29.416Z,36.88
2023-02-23T03:39:25.973Z,36.15
2023-02-23T03:42:14.300Z,37.17
2023-02-23T03:45:03.211Z,36.33
2023-02-23T03:47:56.638Z,36.35
2023-02-23T03:50:48.619Z,37.60
2023-02-23T03:53:38.031Z,36.67
2023-02-23T03:56:25.377Z,37.28
2023-02-23T03:59:15.603Z,39.65
2023-02-23T04:02:00.981Z,37.22
2023-02-23T04:04:47.949Z,38.20
2023-02-23T04:07:36.879Z,38.53
2023-02-23T04:10:23.577Z,37.28
2023-02-23T04:13:12.960Z,37.60
2023-02-23T04:15:44.224Z,38.25
2023-02-23T04:18:14.921Z,38.25
2023-02-23T04:20:41.538Z,38.60
2023-02-23T04:23:08.295Z,39.28
2023-02-23T04:25:35.438Z,38.75
2023-02-23T04:28:02.021Z,38.60
2023-02-23T04:30:29.631Z,39.53
2023-02-23T04:32:59.173Z,37.67
2023-02-23T04:35:27.859Z,39.97
2023-02-23T04:37:54.677Z,40.00
2023-02-23T04:40:23.985Z,37.92
2023-02-23T04:42:51.244Z,38.40
2023-02-23T04:45:18.464Z,39.05
2023-02-23T04:47:45.089Z,41.35
2023-02-23T04:50:12.835Z,39.72
2023-02-23T04:52:39.712Z,39.10
2023-02-23T04:55:08.435Z,41.25
2023-02-23T04:57:35.735Z,39.10
2023-02-23T05:00:04.413Z,40.03
2023-02-23T05:02:32.055Z,39.55
2023-02-23T05:04:58.818Z,40.10
2023-02-23T05:07:25.659Z,39.50
2023-02-23T05:09:52.309Z,41.15
2023-02-23T05:12:18.865Z,39.38
2023-02-23T05:14:45.441Z,39.53
2023-02-23T05:17:12.106Z,39.42
2023-02-23T05:19:38.695Z,41.00
2023-02-23T05:22:05.265Z,40.30
2023-02-23T05:24:31.883Z,39.25
2023-02-23T05:26:58.991Z,38.78
2023-02-23T05:29:25.828Z,39.75
2023-02-23T05:31:52.531Z,40.33
2023-02-23T05:34:19.134Z,39.20
2023-02-23T05:36:45.726Z,38.72
2023-02-23T05:39:12.297Z,39.10
2023-02-23T05:41:38.938Z,39.72
2023-02-23T05:44:05.588Z,39.90
2023-02-23T05:46:32.338Z,39.83
2023-02-23T05:49:00.986Z,40.60
2023-02-23T05:51:29.456Z,38.63
2023-02-23T05:53:56.039Z,39.72
2023-02-23T05:56:22.792Z,38.88
2023-02-23T05:58:57.958Z,39.42
2023-02-23T06:01:25.811Z,39.28
2023-02-23T06:03:52.658Z,40.63
2023-02-23T06:06:19.510Z,39.95
2023-02-23T06:08:46.341Z,40.03
2023-02-23T06:11:13.290Z,42.45
2023-02-23T06:13:40.380Z,42.58
2023-02-23T06:16:08.636Z,43.20
2023-02-23T06:18:35.804Z,41.35
2023-02-23T06:21:03.963Z,38.42
2023-02-23T06:23:31.672Z,39.28
2023-02-23T06:25:59.532Z,41.75
2023-02-23T06:28:27.794Z,42.50
2023-02-23T06:30:55.575Z,41.55
2023-02-23T06:33:22.756Z,42.72
2023-02-23T06:35:49.392Z,44.42
2023-02-23T06:38:16.005Z,42.97
2023-02-23T06:40:43.339Z,41.08
2023-02-23T06:43:10.106Z,41.38
2023-02-23T06:45:36.895Z,41.95
2023-02-23T06:48:03.979Z,41.25
2023-02-23T06:50:30.761Z,41.28
2023-02-23T06:52:57.677Z,42.13
2023-02-23T06:55:24.531Z,41.40
2023-02-23T06:57:53.463Z,41.42
2023-02-23T07:00:20.535Z,42.58
2023-02-23T07:02:47.277Z,41.63
2023-02-23T07:05:13.844Z,43.40
2023-02-23T07:07:40.479Z,43.63
2023-02-23T07:10:07.519Z,44.55
2023-02-23T07:12:34.118Z,45.13
2023-02-23T07:15:00.726Z,43.25
2023-02-23T07:17:27.360Z,43.78
2023-02-23T07:19:54.013Z,44.92
2023-02-23T07:22:20.817Z,43.55
2023-02-23T07:24:48.217Z,42.55
2023-02-23T07:27:14.741Z,47.80
2023-02-23T07:29:41.314Z,46.55
2023-02-23T07:32:07.958Z,46.70
2023-02-23T07:34:34.585Z,45.47
2023-02-23T07:37:01.252Z,45.05
2023-02-23T07:39:27.889Z,45.22
2023-02-23T07:41:54.400Z,46.17
2023-02-23T07:44:21.069Z,44.85
2023-02-23T07:46:47.685Z,44.72
2023-02-23T07:49:14.353Z,45.88
2023-02-23T07:51:41.355Z,43.60
2023-02-23T07:54:07.965Z,44.47
2023-02-23T07:56:35.440Z,43.60
2023-02-23T07:59:03.006Z,42.03
2023-02-23T08:01:29.677Z,43.20
2023-02-23T08:03:56.409Z,42.78
2023-02-23T08:06:23.007Z,40.70
2023-02-23T08:08:49.588Z,42.47
2023-02-23T08:11:16.364Z,41.53
2023-02-23T08:13:43.245Z,40.30
2023-02-23T08:16:10.001Z,40.95
2023-02-23T08:18:36.691Z,40.75
2023-02-23T08:21:05.010Z,37.08
2023-02-23T08:23:33.271Z,35.38
2023-02-23T08:26:01.156Z,36.92
2023-02-23T08:28:28.817Z,36.38
2023-02-23T08:30:55.594Z,30.92
2023-02-23T08:33:22.747Z,32.53
2023-02-23T08:35:49.317Z,33.75
2023-02-23T08:38:16.617Z,33.70
2023-02-23T08:40:43.461Z,35.53
2023-02-23T08:43:10.282Z,33.28
2023-02-23T08:45:39.599Z,33.10
2023-02-23T08:48:07.688Z,30.95
2023-02-23T08:50:34.423Z,28.73
2023-02-23T08:53:01.037Z,27.05
2023-02-23T08:55:27.618Z,28.17
2023-02-23T08:57:54.261Z,27.98
2023-02-23T09:00:21.307Z,28.48
2023-02-23T09:02:48.327Z,28.77
2023-02-23T09:05:15.500Z,28.35
2023-02-23T09:07:45.178Z,28.35
2023-02-23T09:10:17.496Z,27.70
2023-02-23T09:12:44.029Z,28.35
2023-02-23T09:15:12.456Z,26.90
2023-02-23T09:17:39.136Z,26.27
2023-02-23T09:20:06.635Z,26.40
2023-02-23T09:22:36.809Z,25.80
2023-02-23T09:25:03.835Z,24.33
2023-02-23T09:27:30.611Z,24.02
2023-02-23T09:29:57.252Z,24.73
2023-02-23T09:32:24.052Z,26.15
2023-02-23T09:34:52.538Z,23.70
2023-02-23T09:37:19.414Z,25.73
2023-02-23T09:39:46.123Z,24.55
2023-02-23T09:42:35.926Z,24.98
2023-02-23T09:45:31.091Z,25.58
2023-02-23T09:48:12.765Z,25.17
2023-02-23T09:50:42.790Z,24.58
2023-02-23T09:53:24.443Z,25.52
2023-02-23T09:55:54.802Z,24.52
2023-02-23T09:58:24.990Z,24.95
2023-02-23T10:01:10.078Z,26.05
2023-02-23T10:04:05.917Z,25.10
2023-02-23T10:06:33.725Z,26.13
2023-02-23T10:09:14.567Z,25.70
2023-02-23T10:12:01.292Z,26.23
2023-02-23T10:14:40.102Z,24.85
2023-02-23T10:17:06.561Z,26.08
2023-02-23T10:19:47.907Z,25.77
2023-02-23T10:22:16.011Z,23.75
2023-02-23T10:24:48.614Z,25.83
2023-02-23T10:27:21.336Z,24.80
2023-02-23T10:30:00.812Z,25.40
2023-02-23T10:32:48.825Z,26.02
2023-02-23T10:35:17.696Z,25.50
2023-02-23T10:37:45.398Z,25.50
2023-02-23T10:40:23.011Z,24.75
2023-02-23T10:42:50.880Z,25.50
2023-02-23T10:45:24.734Z,26.35
2023-02-23T10:48:03.985Z,25.70
2023-02-23T10:50:31.883Z,25.00
2023-02-23T10:53:16.407Z,26.55
2023-02-23T10:55:45.427Z,25.40
2023-02-23T10:58:19.216Z,24.88
2023-02-23T11:01:03.957Z,25.97
2023-02-23T11:03:35.674Z,24.95
2023-02-23T11:06:02.692Z,25.58
2023-02-23T11:08:37.661Z,25.98
2023-02-23T11:11:08.294Z,24.77
2023-02-23T11:13:41.000Z,27.48
2023-02-23T11:16:14.647Z,24.55
2023-02-23T11:18:56.936Z,27.00
2023-02-23T11:21:35.885Z,24.42
2023-02-23T11:24:22.440Z,24.83
2023-02-23T11:26:52.153Z,25.70
2023-02-23T11:29:35.336Z,24.75
2023-02-23T11:32:19.196Z,26.58
2023-02-23T11:34:49.309Z,24.83
2023-02-23T11:37:20.086Z,25.98
2023-02-23T11:40:01.082Z,25.63
2023-02-23T11:42:33.503Z,26.33
2023-02-23T11:45:07.702Z,24.77
2023-02-23T11:47:39.945Z,24.90
2023-02-23T11:50:08.099Z,27.13
2023-02-23T11:52:36.449Z,25.83
2023-02-23T11:55:07.063Z,24.77
2023-02-23T11:57:36.277Z,26.65
2023-02-23T12:00:12.053Z,27.02
2023-02-23T12:02:49.193Z,28.95
2023-02-23T12:05:23.249Z,26.45
2023-02-23T12:08:03.032Z,25.98
2023-02-23T12:10:51.938Z,25.80
2023-02-23T12:13:48.171Z,25.77
2023-02-23T12:16:30.993Z,24.77
2023-02-23T12:19:08.897Z,26.45
2023-02-23T12:21:44.309Z,25.02
2023-02-23T12:24:37.525Z,28.42
2023-02-23T12:27:04.011Z,26.00
2023-02-23T12:29:40.168Z,27.88
2023-02-23T12:32:14.545Z,27.52
2023-02-23T12:34:55.124Z,25.95
2023-02-23T12:37:42.868Z,25.33
2023-02-23T12:40:42.067Z,26.33
2023-02-23T12:43:18.800Z,26.90
2023-02-23T12:45:52.664Z,26.02
2023-02-23T12:48:48.238Z,25.70
2023-02-23T12:51:19.088Z,27.38
2023-02-23T12:53:45.828Z,26.75
2023-02-23T12:56:34.055Z,26.58
2023-02-23T12:59:13.439Z,26.05
2023-02-23T13:02:00.834Z,26.63
2023-02-23T13:05:13.143Z,27.30
2023-02-23T13:08:04.824Z,26.60
2023-02-23T13:10:39.173Z,27.33
2023-02-23T13:13:20.777Z,27.83
2023-02-23T13:16:12.350Z,25.58
2023-02-23T13:19:20.891Z,26.88
2023-02-23T13:22:19.458Z,27.23
2023-02-23T13:24:49.062Z,25.83
2023-02-23T13:27:27.292Z,26.20
2023-02-23T13:29:56.792Z,27.80
2023-02-23T13:32:32.067Z,29.05
2023-02-23T13:35:00.773Z,26.52
2023-02-23T13:37:35.002Z,26.45
2023-02-23T13:40:35.365Z,26.58
2023-02-23T13:43:17.724Z,26.58
2023-02-23T13:46:10.588Z,26.65
2023-02-23T13:48:56.801Z,26.52
2023-02-23T13:51:30.301Z,25.77
2023-02-23T13:54:23.012Z,27.40
2023-02-23T13:56:56.806Z,26.88
2023-02-23T13:59:36.904Z,27.20
2023-02-23T14:02:20.843Z,25.02
2023-02-23T14:04:47.716Z,25.13
2023-02-23T14:07:23.189Z,26.70
2023-02-23T14:10:00.129Z,26.88
2023-02-23T14:12:34.816Z,26.67
2023-02-23T14:15:37.826Z,26.02
2023-02-23T14:18:29.031Z,27.55
2023-02-23T14:21:28.895Z,27.35
2023-02-23T14:24:25.533Z,27.05
2023-02-23T14:27:04.628Z,27.27
2023-02-23T14:29:40.129Z,26.48
2023-02-23T14:32:12.868Z,27.80
2023-02-23T14:35:30.807Z,25.80
2023-02-23T14:38:09.186Z,26.42
2023-02-23T14:40:42.098Z,26.80
2023-02-23T14:43:38.272Z,27.23
2023-02-23T14:46:11.932Z,25.45
2023-02-23T14:48:42.293Z,25.77
2023-02-23T14:51:24.781Z,24.15
2023-02-23T14:53:53.600Z,24.75
2023-02-23T14:56:24.688Z,23.90
2023-02-23T14:58:54.997Z,25.33
2023-02-23T15:01:39.634Z,24.00
2023-02-23T15:04:16.866Z,23.95
2023-02-23T15:06:47.049Z,23.50
2023-02-23T15:09:22.457Z,23.40
2023-02-23T15:11:54.010Z,24.80
2023-02-23T15:14:27.864Z,23.55
2023-02-23T15:16:56.727Z,26.05
2023-02-23T15:19:27.925Z,24.70
2023-02-23T15:21:57.736Z,23.63
2023-02-23T15:24:31.328Z,25.60
2023-02-23T15:26:58.551Z,24.90
2023-02-23T15:29:31.523Z,24.30
2023-02-23T15:32:18.142Z,25.63
2023-02-23T15:34:45.408Z,25.17
2023-02-23T15:37:26.075Z,24.88
2023-02-23T15:40:02.488Z,24.67
2023-02-23T15:42:38.553Z,24.65
2023-02-23T15:45:20.001Z,24.83
2023-02-23T15:47:46.950Z,25.98
2023-02-23T15:50:27.611Z,24.70
2023-02-23T15:53:02.086Z,25.17
2023-02-23T15:55:35.486Z,25.80
2023-02-23T15:58:26.222Z,26.00
2023-02-23T16:01:06.159Z,26.17
2023-02-23T16:03:37.027Z,26.70
2023-02-23T16:06:05.205Z,25.70
2023-02-23T16:08:32.025Z,26.42
2023-02-23T16:11:14.777Z,26.83
2023-02-23T16:13:45.969Z,25.98
2023-02-23T16:16:19.458Z,27.50
2023-02-23T16:18:53.160Z,26.00
2023-02-23T16:21:25.302Z,28.02
2023-02-23T16:23:54.649Z,27.50
2023-02-23T16:26:33.524Z,25.67
2023-02-23T16:29:02.928Z,28.33
2023-02-23T16:31:44.857Z,28.30
2023-02-23T16:34:26.661Z,29.58
2023-02-23T16:37:01.900Z,30.48
2023-02-23T16:39:30.500Z,28.70
2023-02-23T16:42:00.586Z,28.60
2023-02-23T16:44:41.378Z,28.92
2023-02-23T16:47:09.710Z,28.20
2023-02-23T16:49:36.320Z,29.15
2023-02-23T16:52:12.937Z,29.17
2023-02-23T16:54:39.523Z,29.88
2023-02-23T16:57:22.348Z,29.55
2023-02-23T16:59:51.306Z,30.75
2023-02-23T17:02:19.506Z,31.65
2023-02-23T17:04:49.121Z,30.73
2023-02-23T17:07:17.403Z,32.72
2023-02-23T17:09:44.520Z,33.25
2023-02-23T17:12:21.734Z,32.45
2023-02-23T17:14:49.710Z,33.45
2023-02-23T17:17:18.073Z,32.28
2023-02-23T17:19:45.583Z,33.03
2023-02-23T17:22:13.012Z,33.72
2023-02-23T17:24:41.095Z,33.95
2023-02-23T17:27:07.777Z,33.13
2023-02-23T17:29:34.901Z,34.20
2023-02-23T17:32:02.511Z,33.88
2023-02-23T17:34:29.817Z,34.42
2023-02-23T17:36:56.361Z,34.33
2023-02-23T17:39:27.950Z,36.47
2023-02-23T17:41:55.118Z,37.35
2023-02-23T17:44:21.717Z,36.60
2023-02-23T17:46:48.550Z,37.47
2023-02-23T17:49:15.164Z,39.22
2023-02-23T17:51:42.059Z,40.65
2023-02-23T17:54:08.802Z,40.88
2023-02-23T17:56:35.679Z,40.72
2023-02-23T17:59:02.244Z,45.15
2023-02-23T18:01:29.031Z,45.45
2023-02-23T18:03:58.568Z,45.85
2023-02-23T18:06:25.256Z,47.60
2023-02-23T18:08:51.805Z,47.03
2023-02-23T18:11:19.795Z,48.40
2023-02-23T18:13:47.996Z,51.28
2023-02-23T18:16:16.067Z,50.35
2023-02-23T18:18:46.501Z,51.20
2023-02-23T18:21:18.538Z,51.08
2023-02-23T18:23:45.878Z,55.17
2023-02-23T18:26:15.020Z,57.03
2023-02-23T18:28:44.433Z,56.30
2023-02-23T18:31:21.112Z,58.08
2023-02-23T18:33:52.656Z,61.28
2023-02-23T18:36:35.332Z,65.85
2023-02-23T18:39:03.043Z,69.50
2023-02-23T18:41:31.267Z,75.65
2023-02-23T18:44:02.566Z,77.82
2023-02-23T18:46:29.626Z,81.15
2023-02-23T18:48:56.585Z,83.18
2023-02-23T18:51:25.705Z,88.50
2023-02-23T18:53:53.512Z,91.43
2023-02-23T18:56:25.021Z,99.97
2023-02-23T18:59:04.064Z,100.28
2023-02-23T19:01:37.610Z,99.50
2023-02-23T19:04:05.613Z,101.50
2023-02-23T19:06:33.207Z,105.82
2023-02-23T19:09:03.370Z,107.45
2023-02-23T19:11:32.413Z,102.47
2023-02-23T19:14:02.015Z,102.30
2023-02-23T19:16:31.261Z,104.35
2023-02-23T19:18:59.277Z,105.82
2023-02-23T19:21:26.057Z,101.88
2023-02-23T19:23:53.966Z,98.68
2023-02-23T19:26:21.455Z,95.32
2023-02-23T19:28:48.624Z,93.53
2023-02-23T19:31:19.692Z,97.70
2023-02-23T19:33:48.530Z,96.03
2023-02-23T19:36:17.906Z,93.13
2023-02-23T19:38:45.571Z,91.13
2023-02-23T19:41:14.940Z,89.72
2023-02-23T19:43:41.793Z,88.22
2023-02-23T19:46:17.264Z,83.70
2023-02-23T19:48:45.463Z,80.30
2023-02-23T19:51:13.444Z,82.50
2023-02-23T19:53:40.672Z,77.80
2023-02-23T19:56:12.631Z,77.28
2023-02-23T19:58:43.037Z,74.93
2023-02-23T20:01:11.827Z,73.78
2023-02-23T20:03:39.638Z,71.90
2023-02-23T20:06:07.200Z,73.07
2023-02-23T20:08:34.353Z,66.40
2023-02-23T20:11:00.989Z,65.22
2023-02-23T20:13:27.583Z,69.18
2023-02-23T20:16:05.567Z,71.93
2023-02-23T20:18:35.693Z,60.85
2023-02-23T20:21:17.722Z,60.85
2023-02-23T20:23:45.954Z,59.03
2023-02-23T20:26:26.312Z,57.58
2023-02-23T20:28:54.216Z,53.67
2023-02-23T20:31:26.579Z,48.88
2023-02-23T20:33:54.947Z,48.47
2023-02-23T20:36:23.294Z,48.35
2023-02-23T20:38:49.976Z,44.65
2023-02-23T20:41:17.616Z,46.00
2023-02-23T20:43:44.561Z,46.40
2023-02-23T20:46:15.771Z,45.60
2023-02-23T20:48:42.763Z,51.97
2023-02-23T20:51:12.988Z,45.92
2023-02-23T20:53:40.697Z,50.35
2023-02-23T20:56:09.345Z,53.83
2023-02-23T20:58:36.088Z,49.80
2023-02-23T21:01:06.830Z,44.58
2023-02-23T21:03:35.721Z,47.35
2023-02-23T21:06:02.354Z,43.75
2023-02-23T21:08:30.437Z,36.83
2023-02-23T21:10:57.025Z,44.38
2023-02-23T21:13:26.479Z,43.30
2023-02-23T21:16:01.064Z,42.25
2023-02-23T21:18:28.533Z,41.47
2023-02-23T21:20:56.846Z,42.90
2023-02-23T21:23:24.626Z,45.15
2023-02-23T21:25:53.134Z,41.33
2023-02-23T21:28:20.994Z,40.78
2023-02-23T21:30:47.725Z,39.97
2023-02-23T21:33:14.502Z,41.80
2023-02-23T21:35:41.108Z,40.10
2023-02-23T21:38:08.369Z,41.78
2023-02-23T21:40:35.740Z,36.95
2023-02-23T21:43:06.624Z,34.65
2023-02-23T21:45:33.265Z,33.03
2023-02-23T21:47:59.810Z,34.53
2023-02-23T21:50:26.852Z,34.50
2023-02-23T21:52:56.101Z,36.65
2023-02-23T21:55:22.885Z,35.58
2023-02-23T21:57:51.290Z,34.97
2023-02-23T22:00:20.965Z,35.22
2023-02-23T22:02:47.911Z,34.67
2023-02-23T22:05:16.032Z,35.13
2023-02-23T22:07:51.801Z,34.22
2023-02-23T22:10:20.455Z,35.47
2023-02-23T22:12:47.481Z,33.92
2023-02-23T22:15:15.928Z,34.40
2023-02-23T22:17:43.334Z,33.33
2023-02-23T22:20:10.904Z,33.30
2023-02-23T22:22:37.504Z,34.80
2023-02-23T22:25:06.155Z,32.95
2023-02-23T22:27:33.048Z,32.88
2023-02-23T22:30:01.485Z,32.22
2023-02-23T22:32:32.705Z,31.25
2023-02-23T22:35:01.023Z,31.95
2023-02-23T22:37:31.543Z,32.28
2023-02-23T22:40:01.354Z,32.53
2023-02-23T22:42:35.349Z,31.83
2023-02-23T22:45:02.062Z,31.23
2023-02-23T22:47:28.659Z,31.42
2023-02-23T22:49:55.418Z,33.13
2023-02-23T22:52:21.984Z,34.17
2023-02-23T22:54:48.562Z,32.97
2023-02-23T22:57:15.179Z,32.97
2023-02-23T22:59:54.498Z,33.75
2023-02-23T23:02:24.054Z,31.80
2023-02-23T23:04:54.177Z,35.95
2023-02-23T23:07:20.753Z,33.88
2023-02-23T23:09:47.362Z,33.25
2023-02-23T23:12:14.174Z,32.80
2023-02-23T23:14:40.797Z,32.20
2023-02-23T23:17:09.485Z,31.92
2023-02-23T23:19:39.129Z,33.63
2023-02-23T23:22:06.643Z,32.40
2023-02-23T23:24:33.237Z,32.90
2023-02-23T23:27:01.003Z,33.42
2023-02-23T23:29:32.432Z,31.50
2023-02-23T23:32:01.635Z,32.95
2023-02-23T23:34:28.468Z,32.65
2023-02-23T23:36:55.479Z,31.83
2023-02-23T23:39:23.828Z,34.00
2023-02-23T23:41:50.774Z,33.72
2023-02-23T23:44:19.872Z,33.95
2023-02-23T23:46:47.949Z,34.35
2023-02-23T23:49:17.226Z,35.33
2023-02-23T23:51:56.212Z,35.15
2023-02-23T23:54:26.848Z,33.42
2023-02-23T23:56:54.119Z,34.47
2023-02-23T23:59:22.813Z,33.70
